Time;durP1;ratioP1;P1;durP2;ratioP2;P2;SDS_P1;SDS_P2;PMS_P1;PMS_P2;Temp;Humidity;BMP_temperature;BMP_pressure;BME280_temperature;BME280_humidity;BME280_pressure;Samples;Min_cycle;Max_cycle;Signal;HPM_P1;HPM_P2
2022/05/08 00:00:05;;;;;;;;;25.67;23.67;;;;;13.19;90.22;100036.22;6315872;20;3578459;-50
2022/05/08 00:02:35;;;;;;;;;25.00;24.00;;;;;13.16;90.41;100031.03;6282764;20;2848321;-52
2022/05/08 00:05:05;;;;;;;;;29.67;29.33;;;;;13.03;91.60;100019.34;6318362;20;3584623;-49
2022/05/08 00:07:34;;;;;;;;;31.00;26.67;;;;;12.76;93.20;100024.75;6285171;20;3606524;-51
2022/05/08 00:10:04;;;;;;;;;30.33;27.00;;;;;12.65;93.22;100020.06;6316828;20;3594085;-50
2022/05/08 00:12:33;;;;;;;;;27.67;26.67;;;;;12.56;92.86;100020.63;6283755;20;2860821;-49
2022/05/08 00:15:04;;;;;;;;;26.00;23.00;;;;;12.81;91.68;100019.91;6319032;20;3581557;-49
2022/05/08 00:17:34;;;;;;;;;27.67;27.67;;;;;12.78;92.00;100015.59;6285748;20;3602321;-48
2022/05/08 00:20:09;;;;;;;;;30.00;26.00;;;;;12.46;93.41;100017.69;6284295;20;2853465;-46
2022/05/08 00:22:44;;;;;;;;;25.33;24.00;;;;;12.63;93.81;100012.06;6318629;20;3579452;-46
2022/05/08 00:25:13;;;;;;;;;33.33;29.67;;;;;12.90;91.10;100009.41;6281952;20;3606482;-49
2022/05/08 00:27:42;;;;;;;;;31.67;29.00;;;;;12.77;91.69;100013.88;6318532;20;3609616;-49
2022/05/08 00:30:12;;;;;;;;;26.00;25.00;;;;;12.83;91.85;100008.06;6284499;20;2840890;-51
2022/05/08 00:32:42;;;;;;;;;31.67;29.00;;;;;12.54;93.65;100009.13;6284628;20;3600249;-49
2022/05/08 00:35:10;;;;;;;;;33.67;29.67;;;;;12.93;91.88;100009.19;6318602;20;3604396;-48
2022/05/08 00:37:40;;;;;;;;;28.67;26.67;;;;;13.01;91.44;100007.84;6286586;20;3595101;-50
2022/05/08 00:40:09;;;;;;;;;32.67;27.33;;;;;12.82;91.96;100006.34;6285405;20;3612752;-48
2022/05/08 00:42:37;;;;;;;;;31.67;27.00;;;;;12.83;92.21;100002.69;6285762;20;3606506;-51
2022/05/08 00:45:07;;;;;;;;;29.50;29.50;;;;;12.49;93.63;100004.88;6286389;20;2853471;-50
2022/05/08 00:47:37;;;;;;;;;26.33;25.00;;;;;12.35;95.31;100004.91;6285709;20;2848204;-48
2022/05/08 00:50:07;;;;;;;;;31.33;28.67;;;;;12.66;93.32;99993.00;6316583;20;3602442;-45
2022/05/08 00:52:36;;;;;;;;;30.33;29.00;;;;;12.56;94.57;99989.19;6286973;20;3594008;-47
2022/05/08 00:55:06;;;;;;;;;26.00;24.33;;;;;12.84;93.19;99998.16;6285441;20;2848223;-51
2022/05/08 00:57:41;;;;;;;;;28.67;27.67;;;;;12.95;91.92;100001.88;6313329;20;2854555;-47
2022/05/08 01:00:11;;;;;;;;;31.33;31.00;;;;;12.67;93.41;99997.44;6311893;20;3607562;-49
2022/05/08 01:02:40;;;;;;;;;29.00;27.00;;;;;12.69;93.71;100000.00;6313422;20;2846124;-46
2022/05/08 01:05:11;;;;;;;;;27.67;24.67;;;;;12.64;93.99;99994.09;6282153;20;2852440;-48
2022/05/08 01:07:39;;;;;;;;;34.00;29.00;;;;;12.78;92.81;99995.88;6317892;20;3606505;-47
2022/05/08 01:10:10;;;;;;;;;28.67;27.67;;;;;12.98;92.10;99999.91;6283831;20;2853375;-48
2022/05/08 01:12:44;;;;;;;;;26.67;25.67;;;;;12.89;91.91;99996.88;6311987;20;2842037;-47
2022/05/08 01:15:18;;;;;;;;;28.50;22.50;;;;;12.82;92.15;100006.34;6316925;20;2848160;-45
2022/05/08 01:17:49;;;;;;;;;29.67;25.00;;;;;12.81;92.46;100007.31;6283408;20;2852374;-50
2022/05/08 01:20:18;;;;;;;;;26.67;24.67;;;;;12.77;92.67;100000.41;6318607;20;3578357;-48
2022/05/08 01:22:47;;;;;;;;;28.67;27.00;;;;;12.72;93.64;100006.09;6280274;20;2851300;-47
2022/05/08 01:25:16;;;;;;;;;26.00;26.00;;;;;12.61;94.10;99999.66;6313862;20;2838853;-48
2022/05/08 01:27:45;;;;;;;;;26.00;23.00;;;;;12.68;94.45;100009.06;6283303;20;2844063;-45
2022/05/08 01:30:14;;;;;;;;;28.33;25.33;;;;;12.64;94.33;100004.88;6283128;20;2846634;-48
2022/05/08 01:32:43;;;;;;;;;30.00;27.00;;;;;12.64;94.82;100003.03;6314044;20;3602301;-47
2022/05/08 01:35:12;;;;;;;;;27.00;26.00;;;;;12.63;94.42;100011.19;6282937;20;2844013;-47
2022/05/08 01:37:40;;;;;;;;;27.50;24.00;;;;;12.57;95.38;100017.00;6284271;20;2846114;-48
2022/05/08 01:40:11;;;;;;;;;28.33;25.67;;;;;12.75;94.48;100007.72;6281440;20;2843051;-46
2022/05/08 01:42:39;;;;;;;;;27.50;24.50;;;;;12.76;94.51;100008.56;6314025;20;2841938;-49
2022/05/08 01:45:12;;;;;;;;;30.33;25.33;;;;;12.74;94.87;99998.78;6282200;20;2851409;-47
2022/05/08 01:50:29;;;;;;;;;27.33;24.67;;;;;12.56;95.95;100010.75;6281558;20;2846110;-48
2022/05/08 01:52:58;;;;;;;;;28.00;27.00;;;;;12.70;94.76;100005.31;6316435;20;3596194;-48
2022/05/08 01:55:27;;;;;;;;;25.00;25.00;;;;;12.55;95.21;99991.97;6282884;20;2846079;-46
2022/05/08 01:57:56;;;;;;;;;28.50;28.50;;;;;12.17;97.38;99992.63;6281789;20;2852365;-50
2022/05/08 02:00:26;;;;;;;;;26.00;26.00;;;;;12.46;96.69;99999.69;6281951;20;2841998;-48
2022/05/08 02:02:59;;;;;;;;;21.00;19.50;;;;;12.36;97.24;99993.16;6280019;20;2500280;-47
2022/05/08 02:05:29;;;;;;;;;27.50;26.50;;;;;12.11;98.03;99993.84;6280224;20;2836819;-47
2022/05/08 02:08:02;;;;;;;;;30.00;28.67;;;;;11.92;99.56;99988.75;6279732;20;3598203;-48
2022/05/08 02:10:31;;;;;;;;;30.33;30.33;;;;;12.01;99.41;99993.56;6310816;20;2851296;-48
2022/05/08 02:13:00;;;;;;;;;27.67;25.67;;;;;12.21;98.57;99999.53;6313310;20;3585752;-48
2022/05/08 02:15:31;;;;;;;;;28.50;25.00;;;;;12.54;96.84;99988.44;6280950;20;2836726;-46
2022/05/08 02:18:04;;;;;;;;;31.00;27.33;;;;;12.52;96.34;99993.03;6282526;20;2865091;-45
2022/05/08 02:20:35;;;;;;;;;27.00;26.00;;;;;12.48;96.16;99989.69;6309589;20;3585679;-44
2022/05/08 02:23:04;;;;;;;;;25.50;23.50;;;;;12.54;95.69;99990.25;6279165;20;2846079;-45
2022/05/08 02:25:33;;;;;;;;;27.33;26.33;;;;;12.37;96.29;99994.03;6284687;20;3590993;-47
2022/05/08 02:28:03;;;;;;;;;26.67;26.67;;;;;11.92;98.19;99994.13;6281519;20;2854507;-50
2022/05/08 02:30:32;;;;;;;;;28.67;26.67;;;;;12.00;98.46;99999.03;6310257;20;3586733;-49
2022/05/08 02:33:02;;;;;;;;;26.00;25.00;;;;;12.05;98.88;100005.88;6281727;20;2845198;-51
2022/05/08 02:35:31;;;;;;;;;24.00;23.00;;;;;11.90;98.89;100012.22;6313810;20;3584603;-51
2022/05/08 02:37:59;;;;;;;;;32.00;27.00;;;;;11.61;99.49;100009.47;6279683;20;2856503;-51
2022/05/08 02:40:28;;;;;;;;;28.50;25.00;;;;;11.38;100.00;100005.47;6280165;20;2852391;-53
2022/05/08 02:42:57;;;;;;;;;27.00;27.00;;;;;11.57;100.00;100009.72;6281836;20;2850335;-53
2022/05/08 02:45:26;;;;;;;;;25.00;23.00;;;;;11.59;100.00;100010.50;6282182;20;2837778;-52
2022/05/08 02:47:54;;;;;;;;;30.50;26.00;;;;;11.69;99.77;100010.78;6278432;20;2852409;-50
2022/05/08 02:50:25;;;;;;;;;34.33;29.67;;;;;11.57;99.14;100013.28;6278159;20;3613757;-48
2022/05/08 02:52:54;;;;;;;;;27.67;25.00;;;;;11.93;98.30;100012.03;6314379;20;3583621;-49
2022/05/08 03:01:00;;;;;;;;;31.00;27.00;;;;;11.45;100.00;100008.63;6276399;20;2850308;-47
2022/05/08 03:03:30;;;;;;;;;29.50;26.50;;;;;11.38;100.00;100009.97;6280057;20;2846875;-45
2022/05/08 03:05:59;;;;;;;;;29.50;24.00;;;;;11.10;100.00;100011.59;6281722;20;2838819;-45
2022/05/08 03:08:28;;;;;;;;;28.67;26.67;;;;;11.16;100.00;100010.34;6282830;20;3594063;-47
2022/05/08 03:13:44;;;;;;;;;27.50;27.50;;;;;11.15;100.00;100014.88;6280946;20;2854407;-46
2022/05/08 03:16:14;;;;;;;;;34.33;31.67;;;;;11.10;100.00;100011.59;6279213;20;2845607;-48
2022/05/08 03:18:45;;;;;;;;;32.00;28.50;;;;;11.12;100.00;100016.88;6312637;20;2856494;-46
2022/05/08 03:21:14;;;;;;;;;29.67;29.67;;;;;11.08;100.00;100018.88;6283700;20;3575290;-44
2022/05/08 03:23:46;;;;;;;;;34.67;30.67;;;;;11.20;100.00;100023.53;6278115;20;2867026;-47
2022/05/08 03:26:19;;;;;;;;;33.33;29.67;;;;;11.18;100.00;100020.06;6313084;20;2864993;-48
2022/05/08 03:28:48;;;;;;;;;30.00;25.00;;;;;11.07;100.00;100025.22;6313471;20;3579506;-46
2022/05/08 03:31:18;;;;;;;;;29.67;29.67;;;;;11.37;100.00;100024.34;6278399;20;2860753;-45
2022/05/08 03:33:47;;;;;;;;;33.00;29.33;;;;;11.25;100.00;100025.97;6318713;20;3587763;-46
2022/05/08 03:36:16;;;;;;;;;26.33;25.33;;;;;11.64;100.00;100025.41;6285119;20;2848834;-47
2022/05/08 03:38:47;;;;;;;;;28.00;26.00;;;;;11.60;100.00;100031.91;6318562;20;3588910;-45
2022/05/08 03:41:16;;;;;;;;;27.50;27.50;;;;;11.28;100.00;100031.16;6285346;20;2839891;-49
2022/05/08 03:43:47;;;;;;;;;32.67;26.00;;;;;11.53;100.00;100038.63;6284929;20;2856797;-48
2022/05/08 03:46:16;;;;;;;;;34.33;31.00;;;;;11.52;100.00;100033.34;6318102;20;3618104;-49
2022/05/08 03:48:45;;;;;;;;;35.33;30.33;;;;;11.59;100.00;100034.72;6283717;20;2860657;-47
2022/05/08 03:51:14;;;;;;;;;31.67;31.67;;;;;11.57;100.00;100042.84;6318866;20;3601652;-46
2022/05/08 03:53:44;;;;;;;;;35.67;32.00;;;;;11.62;100.00;100045.28;6286057;20;3603346;-46
2022/05/08 03:56:12;;;;;;;;;32.00;32.00;;;;;11.63;100.00;100050.53;6318488;20;3596048;-47
2022/05/08 03:58:43;;;;;;;;;36.67;34.00;;;;;11.70;100.00;100055.59;6286269;20;2844224;-51
2022/05/08 04:01:12;;;;;;;;;35.67;33.00;;;;;11.72;100.00;100056.34;6317067;20;3589816;-45
2022/05/08 04:03:41;;;;;;;;;36.00;34.00;;;;;11.84;100.00;100063.66;6285680;20;3592008;-48
2022/05/08 04:06:10;;;;;;;;;37.00;33.00;;;;;11.86;100.00;100059.09;6282876;20;3619996;-49
2022/05/08 04:08:39;;;;;;;;;33.67;29.67;;;;;11.53;100.00;100070.03;6317612;20;3587869;-49
2022/05/08 04:11:08;;;;;;;;;27.00;25.50;;;;;11.55;99.38;100066.28;6282543;20;2845068;-49
2022/05/08 04:13:37;;;;;;;;;25.00;25.00;;;;;11.64;97.27;100075.66;6285882;20;2843011;-47
2022/05/08 04:16:16;;;;;;;;;30.33;28.33;;;;;11.90;96.12;100066.03;6284591;20;2846151;-49
2022/05/08 04:18:46;;;;;;;;;33.00;29.33;;;;;11.82;95.69;100068.28;6316541;20;2871176;-47
2022/05/08 04:21:15;;;;;;;;;32.00;28.67;;;;;11.70;97.29;100069.88;6314747;20;3614830;-49
2022/05/08 04:26:34;;;;;;;;;26.33;26.33;;;;;12.39;95.50;100076.44;6319938;20;3591907;-51
2022/05/08 04:29:04;;;;;;;;;30.33;28.00;;;;;12.26;97.07;100080.84;6286096;20;3600274;-47
2022/05/08 04:31:34;;;;;;;;;30.33;28.67;;;;;12.82;97.26;100086.31;6283253;20;3593997;-50
2022/05/08 04:34:03;;;;;;;;;29.00;28.67;;;;;12.90;97.40;100087.56;6318419;20;3589808;-49
2022/05/08 04:36:32;;;;;;;;;32.33;29.33;;;;;13.09;96.57;100084.53;6288540;20;3606506;-46
2022/05/08 04:39:01;;;;;;;;;26.50;22.50;;;;;13.06;98.07;100089.22;6283467;20;2848214;-49
2022/05/08 04:41:30;;;;;;;;;29.33;27.00;;;;;13.26;97.20;100090.63;6284997;20;2852417;-46
2022/05/08 04:44:00;;;;;;;;;31.00;26.33;;;;;13.41;96.31;100094.19;6315551;20;3605661;-49
2022/05/08 04:46:29;;;;;;;;;28.67;28.67;;;;;13.44;96.21;100084.03;6286727;20;3599288;-48
2022/05/08 04:49:00;;;;;;;;;30.33;27.00;;;;;13.55;95.89;100086.88;6285002;20;2862869;-47
2022/05/08 04:51:28;;;;;;;;;32.00;29.33;;;;;13.96;92.53;100082.34;6314310;20;3592368;-47
2022/05/08 04:53:57;;;;;;;;;34.33;31.67;;;;;14.08;90.75;100081.47;6286751;20;3610704;-49
2022/05/08 04:56:26;;;;;;;;;31.67;29.00;;;;;13.76;93.20;100081.84;6284207;20;3612768;-47
2022/05/08 04:58:57;;;;;;;;;30.00;26.00;;;;;14.72;88.72;100084.19;6316594;20;2847205;-48
2022/05/08 05:01:26;;;;;;;;;27.00;24.50;;;;;15.17;86.59;100089.03;6314983;20;3527306;-52
2022/05/08 05:03:55;;;;;;;;;27.67;26.33;;;;;15.87;82.96;100099.94;6318022;20;3597126;-50
2022/05/08 05:06:27;;;;;;;;;27.67;27.00;;;;;14.67;86.46;100097.16;6281420;20;3604442;-50
2022/05/08 05:08:55;;;;;;;;;27.33;27.33;;;;;14.52;89.49;100100.91;6318990;20;3600209;-48
2022/05/08 05:11:24;;;;;;;;;26.67;26.67;;;;;14.80;89.20;100108.81;6285346;20;3591990;-51
2022/05/08 05:13:53;;;;;;;;;23.00;22.00;;;;;14.86;88.31;100110.19;6283409;20;2828395;-50
2022/05/08 05:16:21;;;;;;;;;31.33;27.33;;;;;14.93;87.49;100111.50;6287239;20;3595009;-51
2022/05/08 05:18:50;;;;;;;;;26.00;24.00;;;;;15.48;84.76;100120.03;6287338;20;3589839;-47
2022/05/08 05:21:20;;;;;;;;;23.67;22.00;;;;;15.79;85.15;100119.47;6281142;20;3582550;-49
2022/05/08 05:23:48;;;;;;;;;24.33;21.67;;;;;16.09;82.27;100125.34;6318267;20;3583599;-48
2022/05/08 05:26:17;;;;;;;;;23.67;22.00;;;;;16.13;82.64;100126.84;6282928;20;3588006;-52
2022/05/08 05:28:47;;;;;;;;;23.67;22.00;;;;;16.16;82.92;100118.50;6282793;20;2848263;-49
2022/05/08 05:31:16;;;;;;;;;25.67;24.00;;;;;16.51;81.68;100126.56;6317658;20;3600210;-47
2022/05/08 05:33:48;;;;;;;;;25.00;23.00;;;;;16.87;80.78;100130.91;6282549;20;3589791;-48
2022/05/08 05:36:17;;;;;;;;;19.00;19.00;;;;;16.62;80.12;100133.84;6284552;20;2827365;-49
2022/05/08 05:38:47;;;;;;;;;26.00;24.67;;;;;16.69;80.70;100124.22;6283041;20;3595036;-49
2022/05/08 05:41:16;;;;;;;;;21.00;21.00;;;;;16.73;80.79;100133.00;6314393;20;2850299;-49
2022/05/08 05:43:45;;;;;;;;;18.00;17.00;;;;;16.98;80.87;100131.88;6314493;20;3569058;-46
2022/05/08 05:49:04;;;;;;;;;21.00;19.50;;;;;17.12;78.94;100142.50;6312519;20;2841989;-49
2022/05/08 05:51:32;;;;;;;;;21.33;20.00;;;;;17.28;78.93;100137.53;6286118;20;3581479;-51
2022/05/08 05:54:01;;;;;;;;;20.00;19.50;;;;;17.43;76.12;100135.41;6278201;20;2835681;-47
2022/05/08 05:56:30;;;;;;;;;17.00;17.00;;;;;17.25;76.72;100126.94;6283394;20;2834022;-51
2022/05/08 05:58:59;;;;;;;;;23.00;21.33;;;;;17.39;75.88;100136.63;6286608;20;3567992;-50
2022/05/08 06:01:28;;;;;;;;;20.00;20.00;;;;;17.59;76.46;100134.09;6283924;20;2846143;-52
2022/05/08 06:03:57;;;;;;;;;18.50;18.50;;;;;18.00;74.62;100136.09;6283849;20;2837839;-50
2022/05/08 06:06:25;;;;;;;;;17.00;16.00;;;;;17.97;72.91;100139.06;6284449;20;2825255;-48
2022/05/08 06:08:54;;;;;;;;;22.50;20.00;;;;;18.20;72.74;100132.50;6283215;20;2831735;-49
2022/05/08 06:11:23;;;;;;;;;23.00;20.67;;;;;18.11;73.45;100141.44;6287354;20;3571077;-51
2022/05/08 06:13:51;;;;;;;;;21.33;20.00;;;;;18.36;71.48;100139.34;6316934;20;3576257;-51
2022/05/08 06:16:19;;;;;;;;;18.00;18.00;;;;;18.65;71.50;100144.97;6280143;20;2483609;-51
2022/05/08 06:18:48;;;;;;;;;20.00;20.00;;;;;18.86;70.06;100148.53;6282243;20;3568084;-47
2022/05/08 06:21:17;;;;;;;;;19.00;19.00;;;;;18.40;71.20;100140.78;6283643;20;2839858;-51
2022/05/08 06:23:45;;;;;;;;;26.50;22.00;;;;;18.91;69.86;100145.41;6279067;20;2849251;-50
2022/05/08 06:26:15;;;;;;;;;22.67;20.00;;;;;18.85;69.03;100145.94;6283577;20;2839211;-52
2022/05/08 06:28:45;;;;;;;;;19.67;19.67;;;;;19.30;69.42;100146.41;6319396;20;3571076;-49
2022/05/08 06:31:16;;;;;;;;;19.33;19.00;;;;;19.32;68.64;100148.09;6318410;20;3560641;-50
2022/05/08 06:33:46;;;;;;;;;16.00;15.00;;;;;19.49;67.71;100151.03;6285041;20;2803376;-50
2022/05/08 06:36:15;;;;;;;;;21.00;19.00;;;;;19.65;67.03;100147.75;6284101;20;2823248;-52
2022/05/08 06:38:45;;;;;;;;;18.67;18.67;;;;;19.64;67.25;100143.31;6289567;20;3558649;-53
2022/05/08 06:41:14;;;;;;;;;19.67;19.00;;;;;20.43;65.00;100155.06;6286412;20;3565858;-54
2022/05/08 06:43:42;;;;;;;;;21.00;20.00;;;;;20.76;63.23;100151.84;6321560;20;3587729;-54
2022/05/08 06:46:11;;;;;;;;;18.50;18.50;;;;;20.92;64.57;100156.69;6286019;20;2839920;-49
2022/05/08 06:48:40;;;;;;;;;17.33;17.33;;;;;20.87;64.20;100163.59;6289571;20;3560798;-50
2022/05/08 06:51:09;;;;;;;;;18.33;18.00;;;;;21.21;62.46;100153.81;6319994;20;3563790;-52
2022/05/08 06:53:37;;;;;;;;;19.33;19.33;;;;;21.19;61.70;100153.09;6285882;20;3577354;-52
2022/05/08 06:56:07;;;;;;;;;19.67;18.00;;;;;21.91;60.87;100147.81;6284351;20;3560769;-51
2022/05/08 07:01:34;;;;;;;;;20.00;16.33;;;;;21.23;60.37;100149.06;6282902;20;2483605;-52
2022/05/08 07:01:38;;;;;;;;;16.33;16.33;;;;;21.55;60.43;100157.84;6319830;20;3560734;-51
2022/05/08 07:04:09;;;;;;;;;19.00;19.00;;;;;21.27;60.76;100166.91;6318653;20;3581568;-49
2022/05/08 07:06:40;;;;;;;;;23.00;19.67;;;;;21.37;59.64;100160.50;6286787;20;3565887;-47
2022/05/08 07:09:13;;;;;;;;;18.00;18.00;;;;;22.36;57.93;100163.28;6286303;20;2818999;-51
2022/05/08 07:11:47;;;;;;;;;23.33;21.67;;;;;22.09;57.88;100165.06;6287137;20;3584620;-50
2022/05/08 07:14:17;;;;;;;;;20.00;18.00;;;;;22.66;56.47;100161.09;6287980;20;3566996;-50
2022/05/08 07:16:46;;;;;;;;;18.67;18.67;;;;;22.35;58.81;100167.00;6287580;20;3550242;-48
2022/05/08 07:19:14;;;;;;;;;22.33;21.33;;;;;22.46;58.63;100164.03;6287817;20;3578368;-51
2022/05/08 07:21:43;;;;;;;;;21.00;19.67;;;;;22.28;55.84;100163.22;6283697;20;3576327;-46
2022/05/08 07:24:12;;;;;;;;;19.50;19.50;;;;;22.44;56.07;100159.75;6281123;20;2839850;-52
2022/05/08 07:26:41;;;;;;;;;22.33;19.33;;;;;22.05;57.42;100155.44;6287100;20;3573176;-51
2022/05/08 07:29:10;;;;;;;;;19.00;19.00;;;;;22.77;55.44;100158.06;6281770;20;3581504;-52
2022/05/08 07:31:39;;;;;;;;;17.00;16.00;;;;;22.73;56.18;100164.91;6283910;20;2832566;-50
2022/05/08 07:36:56;;;;;;;;;21.33;20.33;;;;;23.00;53.56;100156.53;6287826;20;3571072;-48
2022/05/08 07:39:24;;;;;;;;;19.67;19.67;;;;;22.74;54.98;100156.50;6288807;20;3581497;-48
2022/05/08 07:41:53;;;;;;;;;23.33;19.00;;;;;22.90;54.39;100166.69;6287476;20;3581681;-51
2022/05/08 07:44:22;;;;;;;;;19.67;19.00;;;;;21.95;57.03;100159.28;6282815;20;2833587;-51
2022/05/08 07:46:51;;;;;;;;;23.33;21.33;;;;;22.94;55.20;100162.63;6315318;20;3579536;-47
2022/05/08 07:49:20;;;;;;;;;19.67;19.33;;;;;22.34;55.58;100160.69;6285691;20;3581543;-47
2022/05/08 07:51:48;;;;;;;;;20.00;18.00;;;;;22.86;54.84;100154.38;6289388;20;3559629;-48
2022/05/08 07:54:17;;;;;;;;;23.00;21.67;;;;;23.35;53.60;100154.63;6282074;20;3573138;-46
2022/05/08 07:56:46;;;;;;;;;20.00;20.00;;;;;23.41;53.99;100162.19;6284429;20;3556470;-49
2022/05/08 07:59:15;;;;;;;;;20.00;19.00;;;;;23.89;52.75;100168.00;6283958;20;2839851;-49
2022/05/08 08:01:44;;;;;;;;;16.00;14.50;;;;;23.51;53.31;100172.16;6283897;20;2825270;-46
2022/05/08 08:04:18;;;;;;;;;21.67;20.00;;;;;23.90;52.45;100168.84;6287345;20;3572125;-49
2022/05/08 08:06:47;;;;;;;;;22.00;20.00;;;;;23.59;53.08;100172.16;6286962;20;3581476;-46
2022/05/08 08:09:16;;;;;;;;;20.33;20.33;;;;;23.88;51.40;100172.63;6283977;20;3582519;-47
2022/05/08 08:11:45;;;;;;;;;19.00;19.00;;;;;23.83;52.03;100174.19;6288294;20;3572086;-48
2022/05/08 08:14:15;;;;;;;;;21.00;19.00;;;;;24.20;50.78;100165.47;6283863;20;3580568;-46
2022/05/08 08:17:04;;;;;;;;;18.00;18.00;;;;;24.36;51.62;100174.75;6315553;20;3557549;-48
2022/05/08 08:19:33;;;;;;;;;20.00;20.00;;;;;23.88;51.66;100178.13;6288597;20;3582519;-46
2022/05/08 08:22:03;;;;;;;;;19.67;19.67;;;;;24.82;49.61;100170.41;6288338;20;2838787;-50
2022/05/08 08:24:32;;;;;;;;;20.67;19.33;;;;;23.98;51.02;100177.09;6320599;20;3581520;-50
2022/05/08 08:27:02;;;;;;;;;19.00;18.67;;;;;23.94;51.52;100173.84;6289959;20;2837775;-51
2022/05/08 08:29:30;;;;;;;;;22.00;21.00;;;;;24.51;51.51;100176.66;6321659;20;3565905;-49
2022/05/08 08:31:59;;;;;;;;;18.33;18.00;;;;;23.90;51.29;100174.34;6292595;20;3571115;-48
2022/05/08 08:34:28;;;;;;;;;19.33;18.00;;;;;23.82;50.92;100180.66;6286829;20;3569093;-46
2022/05/08 08:36:57;;;;;;;;;22.33;21.33;;;;;23.76;51.96;100179.47;6293789;20;3583997;-49
2022/05/08 08:39:25;;;;;;;;;19.33;18.33;;;;;24.02;51.16;100181.22;6291611;20;3567984;-48
2022/05/08 08:42:16;;;;;;;;;23.33;19.00;;;;;23.65;49.65;100182.50;6291950;20;3581561;-47
2022/05/08 08:48:03;;;;;;;;;23.00;21.33;;;;;23.89;52.32;100178.97;6292164;20;3573236;-47
2022/05/08 08:50:33;;;;;;;;;19.33;19.00;;;;;24.00;52.13;100184.13;6287023;20;3581607;-47
2022/05/08 08:53:06;;;;;;;;;23.67;22.00;;;;;24.05;50.79;100183.63;6290017;20;3580845;-48
2022/05/08 08:55:35;;;;;;;;;21.67;21.67;;;;;24.28;51.17;100198.41;6319284;20;3574192;-53
2022/05/08 08:58:05;;;;;;;;;22.33;19.00;;;;;24.52;48.55;100191.22;6319874;20;3581481;-55
2022/05/08 09:00:33;;;;;;;;;16.00;16.00;;;;;24.40;49.68;100181.59;6317560;20;2487785;-51
2022/05/08 09:03:02;;;;;;;;;19.00;17.33;;;;;24.51;49.46;100189.50;6319704;20;3559718;-52
2022/05/08 09:05:33;;;;;;;;;19.00;18.00;;;;;23.91;49.46;100187.00;6288872;20;3575250;-54
2022/05/08 09:08:01;;;;;;;;;20.00;19.00;;;;;24.42;49.37;100193.25;6285873;20;3455676;-49
2022/05/08 09:10:36;;;;;;;;;21.67;20.67;;;;;24.61;48.40;100190.19;6314527;20;2847653;-49
2022/05/08 09:13:07;;;;;;;;;18.00;17.00;;;;;24.42;49.88;100185.88;6316962;20;2824219;-50
2022/05/08 09:15:39;;;;;;;;;20.00;20.00;;;;;24.59;49.34;100185.88;6291317;20;3571071;-51
2022/05/08 09:18:12;;;;;;;;;19.50;19.50;;;;;23.71;50.17;100180.97;6283816;20;2829412;-48
2022/05/08 09:20:51;;;;;;;;;22.00;19.00;;;;;24.12;51.37;100181.94;6284246;20;2824252;-52
2022/05/08 09:23:25;;;;;;;;;20.33;19.33;;;;;24.51;49.51;100178.50;6289816;20;3570056;-52
2022/05/08 09:25:59;;;;;;;;;21.00;21.00;;;;;24.15;49.50;100173.34;6287237;20;3581472;-46
2022/05/08 09:28:44;;;;;;;;;20.00;19.00;;;;;23.88;50.80;100178.13;6288474;20;2839831;-50
2022/05/08 09:31:16;;;;;;;;;20.00;20.00;;;;;23.92;50.49;100169.56;6286220;20;3568970;-49
2022/05/08 09:33:47;;;;;;;;;23.67;21.33;;;;;24.38;49.97;100173.53;6321532;20;3576257;-55
2022/05/08 09:36:24;;;;;;;;;17.00;15.67;;;;;24.49;50.40;100172.38;6288008;20;3556574;-50
2022/05/08 09:38:54;;;;;;;;;21.00;20.00;;;;;24.87;49.08;100178.13;6284068;20;3581466;-50
2022/05/08 09:41:38;;;;;;;;;16.33;16.00;;;;;24.72;47.33;100170.63;6288661;20;3566935;-52
2022/05/08 09:44:16;;;;;;;;;7.00;6.67;;;;;24.45;46.98;100176.47;6289399;20;2753460;-57
2022/05/08 09:46:48;;;;;;;;;15.33;15.33;;;;;24.92;45.51;100170.22;6319386;20;3552312;-51
2022/05/08 09:49:24;;;;;;;;;16.67;15.67;;;;;25.22;44.75;100173.25;6321571;20;3554402;-52
2022/05/08 09:51:56;;;;;;;;;16.00;15.00;;;;;24.96;45.38;100160.56;6288796;20;3547186;-51
2022/05/08 09:54:27;;;;;;;;;15.50;15.50;;;;;24.49;46.87;100169.63;6285637;20;2814868;-54
2022/05/08 09:56:55;;;;;;;;;13.33;13.33;;;;;24.86;45.34;100170.94;6287496;20;3527507;-57
2022/05/08 09:59:24;;;;;;;;;15.00;15.00;;;;;24.47;46.20;100166.19;6314635;20;2810012;-53
2022/05/08 10:01:53;;;;;;;;;16.67;16.67;;;;;24.14;46.93;100166.13;6288769;20;3566919;-60
2022/05/08 10:04:21;;;;;;;;;18.00;18.00;;;;;23.39;50.13;100155.16;6289747;20;3571166;-56
2022/05/08 10:06:52;;;;;;;;;17.00;15.00;;;;;24.05;47.00;100150.72;6279136;20;2815923;-55
2022/05/08 10:15:40;;;;;;;;;20.67;18.00;;;;;25.00;44.98;100153.72;6285853;20;3571077;-52
2022/05/08 10:18:28;;;;;;;;;20.00;18.00;;;;;24.53;44.31;100151.75;6320426;20;3570009;-48
2022/05/08 10:21:12;;;;;;;;;9.00;9.00;;;;;24.95;44.40;100147.88;6283792;20;2744131;-50
2022/05/08 10:23:47;;;;;;;;;11.67;11.67;;;;;24.79;43.77;100145.19;6317240;20;2483736;-53
2022/05/08 10:26:21;;;;;;;;;15.50;14.00;;;;;25.13;44.45;100151.25;6315991;20;2807633;-50
2022/05/08 10:29:07;;;;;;;;;15.00;15.00;;;;;25.42;43.03;100140.69;6282292;20;2491959;-49
2022/05/08 10:31:51;;;;;;;;;13.00;12.00;;;;;25.51;42.67;100153.34;6317643;20;2494031;-50
2022/05/08 10:34:35;;;;;;;;;16.50;15.00;;;;;25.13;43.56;100133.91;6315991;20;2819057;-49
2022/05/08 10:38:22;;;;;;;;;17.63;16.63;;;;;24.86;43.96;100136.06;6296196;20;3573157;-56
2022/05/08 10:40:53;;;;;;;;;17.00;17.00;;;;;24.62;45.42;100137.00;6309048;20;2842066;-52
2022/05/08 10:43:28;;;;;;;;;15.33;13.00;;;;;25.33;44.81;100139.84;6345525;20;2483640;-54
2022/05/08 10:46:21;;;;;;;;;14.00;13.00;;;;;24.90;44.54;100142.06;6347819;20;3517967;-51
2022/05/08 10:48:51;;;;;;;;;15.00;15.00;;;;;25.30;43.63;100140.22;6342899;20;2812766;-54
2022/05/08 10:51:20;;;;;;;;;18.33;17.33;;;;;24.48;46.06;100144.03;6313602;20;3574635;-52
2022/05/08 10:53:49;;;;;;;;;17.00;16.00;;;;;24.64;44.96;100132.16;6311987;20;2823205;-53
2022/05/08 10:56:18;;;;;;;;;15.00;14.50;;;;;24.87;44.70;100128.69;6313304;20;2816920;-53
2022/05/08 10:58:55;;;;;;;;;11.33;10.33;;;;;24.37;44.75;100138.00;6314046;20;2789827;-50
2022/05/08 11:01:25;;;;;;;;;18.00;16.67;;;;;24.89;44.12;100126.63;6347175;20;3568990;-49
2022/05/08 11:04:10;;;;;;;;;15.67;15.00;;;;;24.64;43.84;100129.41;6315484;20;3532613;-51
2022/05/08 11:06:39;;;;;;;;;17.33;17.33;;;;;25.45;43.38;100123.84;6342559;20;3562867;-49
2022/05/08 11:09:08;;;;;;;;;16.00;14.00;;;;;25.86;43.87;100129.09;6309723;20;2702312;-51
2022/05/08 11:11:36;;;;;;;;;12.67;11.00;;;;;25.60;42.83;100125.63;6345746;20;3513892;-51
2022/05/08 11:14:05;;;;;;;;;15.00;13.00;;;;;25.13;43.24;100121.03;6343928;20;2800366;-52
2022/05/08 11:16:36;;;;;;;;;15.00;15.00;;;;;25.45;43.77;100126.59;6313692;20;3531554;-57
2022/05/08 11:19:07;;;;;;;;;16.00;14.67;;;;;25.76;44.81;100110.06;6345541;20;2483616;-55
2022/05/08 11:21:36;;;;;;;;;15.00;15.00;;;;;26.13;43.52;100105.69;6347491;20;3543959;-55
2022/05/08 11:24:05;;;;;;;;;15.33;13.00;;;;;25.66;43.99;100103.94;6347254;20;3527440;-58
2022/05/08 11:26:35;;;;;;;;;15.33;15.00;;;;;26.26;42.39;100105.91;6345036;20;2483715;-53
2022/05/08 11:29:04;;;;;;;;;19.00;16.00;;;;;26.54;41.93;100099.81;6344268;20;3566919;-55
2022/05/08 11:31:35;;;;;;;;;14.00;13.00;;;;;24.84;44.03;100101.56;6345185;20;2789940;-53
2022/05/08 11:37:04;;;;;;;;;19.00;16.00;;;;;25.68;42.74;100093.63;6343432;20;3555893;-52
2022/05/08 11:39:33;;;;;;;;;15.00;15.00;;;;;26.19;42.15;100092.03;6307575;20;2798153;-57
2022/05/08 11:42:02;;;;;;;;;12.33;12.33;;;;;25.81;41.25;100085.63;6309527;20;2483617;-58